Minneapolis (MSP/KMSP)

Information

Location
Minneapolis, MN
Local Time
17:25 / 5:25 pm
GMT Time
23:25 / 11:25 pm
Gates
E7
No FAA reported delays
METAR KMSP 182253Z 21003KT 10SM SCT240 OVC300 04/M02 A2980 RMK AO2 SLP100 T00391022
TAF KMSP 182054Z 1821/1924 24009KT P6SM BKN250 FM190000 20005KT P6SM BKN250 FM190900 18004KT P6SM BKN200 FM191500 17007KT P6SM BKN150